createdAt,value
2019-01-23T00:00:34.086Z,75.48
2019-01-23T00:03:02.977Z,75.38
2019-01-23T00:05:32.807Z,75.52
2019-01-23T00:08:01.221Z,75.41
2019-01-23T00:10:29.960Z,75.53
2019-01-23T00:12:58.645Z,75.62
2019-01-23T00:15:27.323Z,75.64
2019-01-23T00:17:55.722Z,75.58
2019-01-23T00:20:24.398Z,75.51
2019-01-23T00:22:52.810Z,75.24
2019-01-23T00:25:21.204Z,74.80
2019-01-23T00:27:49.587Z,74.62
2019-01-23T00:30:18.234Z,74.58
2019-01-23T00:32:46.629Z,74.53
2019-01-23T00:35:15.024Z,74.66
2019-01-23T00:37:44.068Z,74.53
2019-01-23T00:40:16.875Z,74.23
2019-01-23T00:42:45.740Z,74.17
2019-01-23T00:45:16.168Z,74.03
2019-01-23T00:47:44.954Z,73.92
2019-01-23T00:50:15.156Z,73.94
2019-01-23T00:52:44.029Z,74.27
2019-01-23T00:55:16.201Z,73.88
2019-01-23T00:57:44.924Z,74.02
2019-01-23T01:00:29.809Z,73.94
2019-01-23T01:02:58.451Z,73.55
2019-01-23T01:05:27.783Z,73.26
2019-01-23T01:07:56.196Z,72.98
2019-01-23T01:10:24.947Z,73.32
2019-01-23T01:12:53.737Z,73.44
2019-01-23T01:15:22.536Z,72.58
2019-01-23T01:17:50.990Z,72.42
2019-01-23T01:20:19.469Z,72.39
2019-01-23T01:22:48.167Z,72.36
2019-01-23T01:25:18.705Z,72.11
2019-01-23T01:27:47.097Z,71.83
2019-01-23T01:30:20.653Z,72.06
2019-01-23T01:32:49.060Z,71.83
2019-01-23T01:35:17.462Z,71.61
2019-01-23T01:37:45.874Z,72.14
2019-01-23T01:40:16.718Z,72.12
2019-01-23T01:42:45.409Z,72.21
2019-01-23T01:45:15.790Z,72.13
2019-01-23T01:47:44.266Z,72.06
2019-01-23T01:50:18.185Z,71.91
2019-01-23T01:52:46.830Z,71.85
2019-01-23T01:55:15.292Z,71.51
2019-01-23T01:57:43.690Z,71.56
2019-01-23T02:00:17.832Z,71.85
2019-01-23T02:02:46.306Z,71.62
2019-01-23T02:05:15.244Z,71.73
2019-01-23T02:07:43.901Z,71.08
2019-01-23T02:10:15.206Z,70.80
2019-01-23T02:12:43.745Z,70.75
2019-01-23T02:15:13.898Z,71.06
2019-01-23T02:17:42.569Z,71.01
2019-01-23T02:20:14.023Z,71.36
2019-01-23T02:22:42.420Z,71.42
2019-01-23T02:25:11.344Z,71.04
2019-01-23T02:27:39.796Z,71.51
2019-01-23T02:30:16.891Z,71.26
2019-01-23T02:32:45.376Z,71.06
2019-01-23T02:35:13.853Z,71.58
2019-01-23T02:37:42.545Z,70.91
2019-01-23T02:40:14.517Z,71.01
2019-01-23T02:42:43.195Z,70.99
2019-01-23T02:45:12.103Z,70.56
2019-01-23T02:47:40.510Z,70.66
2019-01-23T02:50:10.830Z,71.06
2019-01-23T02:52:39.396Z,71.01
2019-01-23T02:55:11.983Z,70.93
2019-01-23T02:57:40.741Z,71.04
2019-01-23T03:00:12.189Z,70.97
2019-01-23T03:02:40.767Z,71.08
2019-01-23T03:05:12.632Z,70.94
2019-01-23T03:07:41.042Z,71.08
2019-01-23T03:10:12.668Z,71.35
2019-01-23T03:12:41.455Z,71.61
2019-01-23T03:15:12.296Z,71.50
2019-01-23T03:17:40.764Z,71.44
2019-01-23T03:20:12.140Z,71.00
2019-01-23T03:22:40.604Z,70.83
2019-01-23T03:25:11.031Z,70.63
2019-01-23T03:27:39.435Z,70.74
2019-01-23T03:30:11.059Z,70.82
2019-01-23T03:32:39.449Z,70.63
2019-01-23T03:35:09.972Z,70.62
2019-01-23T03:37:38.385Z,70.61
2019-01-23T03:40:10.117Z,70.97
2019-01-23T03:42:38.524Z,71.01
2019-01-23T03:45:09.841Z,71.42
2019-01-23T03:47:38.534Z,71.36
2019-01-23T03:50:09.986Z,71.20
2019-01-23T03:52:38.387Z,70.74
2019-01-23T03:55:09.031Z,70.73
2019-01-23T03:57:37.639Z,70.86
2019-01-23T04:00:11.775Z,70.63
2019-01-23T04:02:40.416Z,70.73
2019-01-23T04:05:11.162Z,70.17
2019-01-23T04:07:39.929Z,70.68
2019-01-23T04:10:11.655Z,70.56
2019-01-23T04:12:40.557Z,70.32
2019-01-23T04:15:11.521Z,70.23
2019-01-23T04:17:39.983Z,70.16
2019-01-23T04:20:14.495Z,70.11
2019-01-23T04:22:43.074Z,70.42
2019-01-23T04:25:11.992Z,70.18
2019-01-23T04:27:40.395Z,70.70
2019-01-23T04:30:15.056Z,71.01
2019-01-23T04:32:43.471Z,70.83
2019-01-23T04:35:12.061Z,70.51
2019-01-23T04:37:40.460Z,70.91
2019-01-23T04:40:11.612Z,70.64
2019-01-23T04:42:40.011Z,70.13
2019-01-23T04:45:11.728Z,70.35
2019-01-23T04:47:40.120Z,70.68
2019-01-23T04:50:13.986Z,70.56
2019-01-23T04:52:44.019Z,70.21
2019-01-23T04:55:12.487Z,70.35
2019-01-23T04:57:41.164Z,70.29
2019-01-23T05:00:14.318Z,70.94
2019-01-23T05:02:42.714Z,70.92
2019-01-23T05:05:11.753Z,71.18
2019-01-23T05:07:40.160Z,71.60
2019-01-23T05:10:09.092Z,71.58
2019-01-23T05:12:37.499Z,71.31
2019-01-23T05:15:08.192Z,71.77
2019-01-23T05:17:36.600Z,71.35
2019-01-23T05:20:08.038Z,71.94
2019-01-23T05:22:36.454Z,72.03
2019-01-23T05:25:06.708Z,71.94
2019-01-23T05:27:35.113Z,71.71
2019-01-23T05:30:04.799Z,71.56
2019-01-23T05:32:33.191Z,71.77
2019-01-23T05:35:01.599Z,71.84
2019-01-23T05:37:29.995Z,71.62
2019-01-23T05:39:58.685Z,71.73
2019-01-23T05:42:27.347Z,71.58
2019-01-23T05:44:55.819Z,71.55
2019-01-23T05:47:24.296Z,71.34
2019-01-23T05:49:52.764Z,71.11
2019-01-23T05:52:21.205Z,70.97
2019-01-23T05:54:49.625Z,71.01
2019-01-23T05:57:18.016Z,71.12
2019-01-23T05:59:46.402Z,71.28
2019-01-23T06:02:14.805Z,71.55
2019-01-23T06:04:43.205Z,71.23
2019-01-23T06:07:11.610Z,71.09
2019-01-23T06:09:40.012Z,70.97
2019-01-23T06:12:08.421Z,71.07
2019-01-23T06:14:36.826Z,71.20
2019-01-23T06:17:05.277Z,71.01
2019-01-23T06:19:33.760Z,70.87
2019-01-23T06:22:02.437Z,70.84
2019-01-23T06:24:30.817Z,71.06
2019-01-23T06:26:59.210Z,71.05
2019-01-23T06:29:28.190Z,70.83
2019-01-23T06:31:56.875Z,70.60
2019-01-23T06:34:25.266Z,70.51
2019-01-23T06:36:53.681Z,70.56
2019-01-23T06:39:22.076Z,70.63
2019-01-23T06:41:50.472Z,70.75
2019-01-23T06:44:18.897Z,71.41
2019-01-23T06:46:47.555Z,70.92
2019-01-23T06:49:15.975Z,70.64
2019-01-23T06:51:44.365Z,70.21
2019-01-23T06:54:12.922Z,70.47
2019-01-23T06:56:41.585Z,70.40
2019-01-23T06:59:09.995Z,70.44
2019-01-23T07:01:38.395Z,70.28
2019-01-23T07:04:06.784Z,70.26
2019-01-23T07:06:35.208Z,70.41
2019-01-23T07:09:05.519Z,70.15
2019-01-23T07:11:34.208Z,70.15
2019-01-23T07:14:02.615Z,69.95
2019-01-23T07:16:31.026Z,69.71
2019-01-23T07:18:59.575Z,69.64
2019-01-23T07:21:28.342Z,69.52
2019-01-23T07:23:57.462Z,69.46
2019-01-23T07:26:26.006Z,70.28
2019-01-23T07:28:54.626Z,69.63
2019-01-23T07:31:23.036Z,69.59
2019-01-23T07:33:51.768Z,69.82
2019-01-23T07:36:20.166Z,69.53
2019-01-23T07:38:48.835Z,69.76
2019-01-23T07:41:17.736Z,69.97
2019-01-23T07:43:46.139Z,69.69
2019-01-23T07:46:15.104Z,69.58
2019-01-23T07:48:43.488Z,69.89
2019-01-23T07:51:11.902Z,69.94
2019-01-23T07:53:40.343Z,69.83
2019-01-23T07:56:08.833Z,69.88
2019-01-23T07:58:37.244Z,70.06
2019-01-23T08:01:05.637Z,70.54
2019-01-23T08:03:34.259Z,70.23
2019-01-23T08:06:02.676Z,70.28
2019-01-23T08:08:31.077Z,70.01
2019-01-23T08:10:59.468Z,69.73
2019-01-23T08:13:28.025Z,70.32
2019-01-23T08:15:56.418Z,70.59
2019-01-23T08:18:24.826Z,70.28
2019-01-23T08:20:53.532Z,70.23
2019-01-23T08:23:22.356Z,69.99
2019-01-23T08:25:50.795Z,69.64
2019-01-23T08:28:19.137Z,70.15
2019-01-23T08:30:47.866Z,69.61
2019-01-23T08:33:16.557Z,69.43
2019-01-23T08:35:45.243Z,69.34
2019-01-23T08:38:14.024Z,68.66
2019-01-23T08:40:42.416Z,68.94
2019-01-23T08:43:11.195Z,69.01
2019-01-23T08:45:39.884Z,68.76
2019-01-23T08:48:08.281Z,68.21
2019-01-23T08:50:39.019Z,68.20
2019-01-23T08:53:07.686Z,67.77
2019-01-23T08:55:36.366Z,67.77
2019-01-23T08:58:05.706Z,67.60
2019-01-23T09:00:34.455Z,66.93
2019-01-23T09:03:02.957Z,67.01
2019-01-23T09:05:31.436Z,66.92
2019-01-23T09:08:00.102Z,66.32
2019-01-23T09:10:29.944Z,65.84
2019-01-23T09:12:58.711Z,65.70
2019-01-23T09:15:27.141Z,64.94
2019-01-23T09:17:55.872Z,65.36
2019-01-23T09:20:24.637Z,65.10
2019-01-23T09:22:53.050Z,64.33
2019-01-23T09:25:26.772Z,64.60
2019-01-23T09:27:55.537Z,64.83
2019-01-23T09:30:27.058Z,64.47
2019-01-23T09:33:18.203Z,64.39
2019-01-23T09:35:58.439Z,64.33
2019-01-23T09:38:35.997Z,63.28
2019-01-23T09:41:07.440Z,63.74
2019-01-23T09:43:56.710Z,63.90
2019-01-23T09:46:34.106Z,63.61
2019-01-23T09:49:08.580Z,63.06
2019-01-23T09:51:40.022Z,63.24
2019-01-23T09:54:11.549Z,63.30
2019-01-23T09:56:42.296Z,62.79
2019-01-23T09:59:11.004Z,62.52
2019-01-23T10:01:39.505Z,62.89
2019-01-23T10:04:08.198Z,62.19
2019-01-23T10:06:36.616Z,62.37
2019-01-23T10:09:07.805Z,62.29
2019-01-23T10:11:36.262Z,62.01
2019-01-23T10:14:04.874Z,62.29
2019-01-23T10:16:33.286Z,62.56
2019-01-23T10:19:01.959Z,62.35
2019-01-23T10:21:30.749Z,61.79
2019-01-23T10:23:59.406Z,61.65
2019-01-23T10:26:27.810Z,60.94
2019-01-23T10:28:56.208Z,60.32
2019-01-23T10:31:24.593Z,59.34
2019-01-23T10:33:53.055Z,59.46
2019-01-23T10:36:21.704Z,59.03
2019-01-23T10:38:50.086Z,58.63
2019-01-23T10:41:18.474Z,57.15
2019-01-23T10:43:46.880Z,56.93
2019-01-23T10:46:15.266Z,55.84
2019-01-23T10:48:43.908Z,55.53
2019-01-23T10:51:12.700Z,55.87
2019-01-23T10:53:41.088Z,56.49
2019-01-23T10:56:09.488Z,55.88
2019-01-23T10:58:38.247Z,56.83
2019-01-23T11:01:13.212Z,57.18
2019-01-23T11:03:36.881Z,57.08
2019-01-23T11:06:05.611Z,56.81
2019-01-23T11:08:34.319Z,56.49
2019-01-23T11:11:03.383Z,55.11
2019-01-23T11:13:31.902Z,54.10
2019-01-23T11:16:00.379Z,54.88
2019-01-23T11:18:29.072Z,55.44
2019-01-23T11:20:57.466Z,55.30
2019-01-23T11:23:25.850Z,54.69
2019-01-23T11:25:54.320Z,54.85
2019-01-23T11:28:23.395Z,55.02
2019-01-23T11:30:52.085Z,55.22
2019-01-23T11:33:20.709Z,54.35
2019-01-23T11:35:49.100Z,54.99
2019-01-23T11:38:17.650Z,55.23
2019-01-23T11:40:46.130Z,55.19
2019-01-23T11:43:14.528Z,55.79
2019-01-23T11:45:43.147Z,55.41
2019-01-23T11:48:11.616Z,55.05
2019-01-23T11:50:40.240Z,54.20
2019-01-23T11:53:08.720Z,54.25
2019-01-23T11:55:37.105Z,54.35
2019-01-23T11:58:05.862Z,55.65
2019-01-23T12:00:36.523Z,54.95
2019-01-23T12:03:06.028Z,55.07
2019-01-23T12:05:34.692Z,54.15
2019-01-23T12:08:03.404Z,53.47
2019-01-23T12:10:32.194Z,54.76
2019-01-23T12:13:00.580Z,53.66
2019-01-23T12:15:28.977Z,54.95
2019-01-23T12:17:57.633Z,54.88
2019-01-23T12:20:26.090Z,55.26
2019-01-23T12:22:54.802Z,55.20
2019-01-23T12:25:23.186Z,54.82
2019-01-23T12:27:51.574Z,55.20
2019-01-23T12:30:32.226Z,55.50
2019-01-23T12:33:00.911Z,55.03
2019-01-23T12:35:29.694Z,54.71
2019-01-23T12:37:58.327Z,54.27
2019-01-23T12:40:26.978Z,54.75
2019-01-23T12:42:55.963Z,54.76
2019-01-23T12:45:27.332Z,55.73
2019-01-23T12:47:55.704Z,55.48
2019-01-23T12:50:27.038Z,55.31
2019-01-23T12:52:55.415Z,54.90
2019-01-23T12:55:24.204Z,54.87
2019-01-23T12:57:52.639Z,53.97
2019-01-23T13:00:26.195Z,54.47
2019-01-23T13:02:55.185Z,54.83
2019-01-23T13:05:24.278Z,54.57
2019-01-23T13:07:53.146Z,55.08
2019-01-23T13:10:23.940Z,55.09
2019-01-23T13:12:53.824Z,55.00
2019-01-23T13:15:24.452Z,54.57
2019-01-23T13:17:53.484Z,55.46
2019-01-23T13:20:23.836Z,55.75
2019-01-23T13:22:52.572Z,55.65
2019-01-23T13:25:24.109Z,54.80
2019-01-23T13:27:52.574Z,55.18
2019-01-23T13:30:23.735Z,56.01
2019-01-23T13:32:52.198Z,55.94
2019-01-23T13:35:23.796Z,56.52
2019-01-23T13:37:52.173Z,56.57
2019-01-23T13:40:26.580Z,56.17
2019-01-23T13:42:55.256Z,55.86
2019-01-23T13:45:23.717Z,55.54
2019-01-23T13:47:52.366Z,55.94
2019-01-23T13:50:21.106Z,55.86
2019-01-23T13:52:49.499Z,54.97
2019-01-23T13:55:21.447Z,55.57
2019-01-23T13:57:49.969Z,55.72
2019-01-23T14:00:23.984Z,55.84
2019-01-23T14:02:52.371Z,56.98
2019-01-23T14:05:20.758Z,56.01
2019-01-23T14:07:49.168Z,55.92
2019-01-23T14:10:22.640Z,56.19
2019-01-23T14:12:51.047Z,56.75
2019-01-23T14:15:37.153Z,56.52
2019-01-23T14:18:06.492Z,56.41
2019-01-23T14:20:34.960Z,56.18
2019-01-23T14:23:03.824Z,56.65
2019-01-23T14:25:32.519Z,56.50
2019-01-23T14:28:01.031Z,56.42
2019-01-23T14:30:37.979Z,56.67
2019-01-23T14:33:06.449Z,56.26
2019-01-23T14:35:36.186Z,56.33
2019-01-23T14:38:05.943Z,56.48
2019-01-23T14:40:35.078Z,56.55
2019-01-23T14:43:03.968Z,57.44
2019-01-23T14:45:32.349Z,57.32
2019-01-23T14:48:00.734Z,57.28
2019-01-23T14:50:29.226Z,57.15
2019-01-23T14:52:57.644Z,56.11
2019-01-23T14:55:26.730Z,57.24
2019-01-23T14:57:55.190Z,56.62
2019-01-23T15:00:29.265Z,56.30
2019-01-23T15:02:57.801Z,57.40
2019-01-23T15:05:26.489Z,57.44
2019-01-23T15:07:54.938Z,57.10
2019-01-23T15:10:28.821Z,58.42
2019-01-23T15:12:57.526Z,57.89
2019-01-23T15:15:26.010Z,57.78
2019-01-23T15:17:55.424Z,57.81
2019-01-23T15:20:29.898Z,59.37
2019-01-23T15:22:58.703Z,58.89
2019-01-23T15:25:27.379Z,58.25
2019-01-23T15:27:56.010Z,58.54
2019-01-23T15:30:25.128Z,58.67
2019-01-23T15:32:53.696Z,58.71
2019-01-23T15:35:22.446Z,58.71
2019-01-23T15:37:51.144Z,58.95
2019-01-23T15:40:25.051Z,59.03
2019-01-23T15:42:53.465Z,59.54
2019-01-23T15:45:22.192Z,58.70
2019-01-23T15:47:52.231Z,58.57
2019-01-23T15:50:24.074Z,58.73
2019-01-23T15:52:52.513Z,59.35
2019-01-23T15:55:22.943Z,59.36
2019-01-23T15:57:52.449Z,58.60
2019-01-23T16:00:29.304Z,59.06
2019-01-23T16:02:57.780Z,59.61
2019-01-23T16:05:26.307Z,59.65
2019-01-23T16:07:56.143Z,59.44
2019-01-23T16:10:28.835Z,59.57
2019-01-23T16:12:57.237Z,58.79
2019-01-23T16:15:28.676Z,58.66
2019-01-23T16:17:57.547Z,59.17
2019-01-23T16:20:26.763Z,59.36
2019-01-23T16:22:55.477Z,59.85
2019-01-23T16:25:23.914Z,59.46
2019-01-23T16:27:52.407Z,58.52
2019-01-23T16:30:29.513Z,59.32
2019-01-23T16:32:57.922Z,59.46
2019-01-23T16:35:26.376Z,59.65
2019-01-23T16:37:55.171Z,59.70
2019-01-23T16:40:23.566Z,58.79
2019-01-23T16:42:52.304Z,58.84
2019-01-23T16:45:22.634Z,58.92
2019-01-23T16:47:51.374Z,59.22
2019-01-23T16:50:22.775Z,59.46
2019-01-23T16:52:51.469Z,59.89
2019-01-23T16:55:20.017Z,59.90
2019-01-23T16:57:49.441Z,59.74
2019-01-23T17:00:21.131Z,59.77
2019-01-23T17:02:49.526Z,59.57
2019-01-23T17:05:21.745Z,59.71
2019-01-23T17:07:50.225Z,59.02
2019-01-23T17:10:21.746Z,59.11
2019-01-23T17:12:50.410Z,59.42
2019-01-23T17:15:19.153Z,59.27
2019-01-23T17:17:47.618Z,59.39
2019-01-23T17:20:34.471Z,59.64
2019-01-23T17:23:02.863Z,59.46
2019-01-23T17:25:31.603Z,59.22
2019-01-23T17:28:00.398Z,59.27
2019-01-23T17:30:29.400Z,59.34
2019-01-23T17:32:57.864Z,59.20
2019-01-23T17:35:26.290Z,59.41
2019-01-23T17:37:54.750Z,59.44
2019-01-23T17:40:25.246Z,59.77
2019-01-23T17:42:53.971Z,59.59
2019-01-23T17:45:38.602Z,58.73
2019-01-23T17:48:09.842Z,59.26
2019-01-23T17:50:38.262Z,59.09
2019-01-23T17:53:07.104Z,58.46
2019-01-23T17:55:37.869Z,58.54
2019-01-23T17:58:09.010Z,59.08
2019-01-23T18:00:39.149Z,59.16
2019-01-23T18:03:07.653Z,59.27
2019-01-23T18:05:36.402Z,59.35
2019-01-23T18:08:05.702Z,59.08
2019-01-23T18:10:34.243Z,59.28
2019-01-23T18:13:02.677Z,59.36
2019-01-23T18:15:37.397Z,59.35
2019-01-23T18:18:07.696Z,59.39
2019-01-23T18:20:36.408Z,58.98
2019-01-23T18:23:05.699Z,58.79
2019-01-23T18:25:34.434Z,58.86
2019-01-23T18:28:02.836Z,58.91
2019-01-23T18:30:52.334Z,59.07
2019-01-23T18:33:23.799Z,59.25
2019-01-23T18:36:10.913Z,59.41
2019-01-23T18:38:42.491Z,59.20
2019-01-23T18:41:22.486Z,59.34
2019-01-23T18:44:06.158Z,59.46
2019-01-23T18:46:58.936Z,59.40
2019-01-23T18:49:36.404Z,58.99
2019-01-23T18:52:08.062Z,59.10
2019-01-23T18:54:36.558Z,58.82
2019-01-23T18:57:06.399Z,58.96
2019-01-23T18:59:34.951Z,59.12
2019-01-23T19:02:03.346Z,58.81
2019-01-23T19:04:32.032Z,59.04
2019-01-23T19:07:00.515Z,58.78
2019-01-23T19:09:29.177Z,58.04
2019-01-23T19:11:57.849Z,58.31
2019-01-23T19:14:26.541Z,58.52
2019-01-23T19:16:55.054Z,58.64
2019-01-23T19:19:23.526Z,58.59
2019-01-23T19:21:55.103Z,58.44
2019-01-23T19:24:22.271Z,58.38
2019-01-23T19:26:50.860Z,58.52
2019-01-23T19:29:19.268Z,59.14
2019-01-23T19:31:47.703Z,59.15
2019-01-23T19:34:16.185Z,59.43
2019-01-23T19:36:44.666Z,59.81
2019-01-23T19:39:14.117Z,60.04
2019-01-23T19:41:42.526Z,60.22
2019-01-23T19:44:10.914Z,60.15
2019-01-23T19:46:39.365Z,59.89
2019-01-23T19:49:08.142Z,59.98
2019-01-23T19:51:36.578Z,59.85
2019-01-23T19:54:05.697Z,59.75
2019-01-23T19:56:34.160Z,58.93
2019-01-23T19:59:02.591Z,58.82
2019-01-23T20:01:31.301Z,58.81
2019-01-23T20:03:59.695Z,59.10
2019-01-23T20:06:28.085Z,59.39
2019-01-23T20:08:57.124Z,59.41
2019-01-23T20:11:25.555Z,59.31
2019-01-23T20:13:54.035Z,59.34
2019-01-23T20:16:22.448Z,59.32
2019-01-23T20:18:51.461Z,59.39
2019-01-23T20:21:20.148Z,59.41
2019-01-23T20:23:48.617Z,59.37
2019-01-23T20:26:17.084Z,59.32
2019-01-23T20:28:45.909Z,59.08
2019-01-23T20:31:14.336Z,58.85
2019-01-23T20:33:42.891Z,59.09
2019-01-23T20:36:11.315Z,59.22
2019-01-23T20:38:39.723Z,59.23
2019-01-23T20:41:08.174Z,59.45
2019-01-23T20:43:36.583Z,59.34
2019-01-23T20:46:05.424Z,59.15
2019-01-23T20:48:33.839Z,58.84
2019-01-23T20:51:02.308Z,58.74
2019-01-23T20:53:30.807Z,58.67
2019-01-23T20:55:59.419Z,58.42
2019-01-23T20:58:27.862Z,58.57
2019-01-23T21:00:56.339Z,58.74
2019-01-23T21:03:24.875Z,58.66
2019-01-23T21:05:53.320Z,58.70
2019-01-23T21:08:22.271Z,58.54
2019-01-23T21:10:50.724Z,58.78
2019-01-23T21:13:19.118Z,59.15
2019-01-23T21:15:47.502Z,59.46
2019-01-23T21:18:15.934Z,59.47
2019-01-23T21:20:44.664Z,59.68
2019-01-23T21:23:13.074Z,59.61
2019-01-23T21:25:41.572Z,59.65
2019-01-23T21:28:10.182Z,59.66
2019-01-23T21:30:38.780Z,59.79
2019-01-23T21:33:07.176Z,59.88
2019-01-23T21:35:35.865Z,60.06
2019-01-23T21:38:04.826Z,60.01
2019-01-23T21:40:33.599Z,59.64
2019-01-23T21:43:02.842Z,59.74
2019-01-23T21:45:31.601Z,60.36
2019-01-23T21:48:00.023Z,60.63
2019-01-23T21:50:28.755Z,60.86
2019-01-23T21:52:57.163Z,60.43
2019-01-23T21:55:25.726Z,60.02
2019-01-23T21:57:54.608Z,60.19
2019-01-23T22:00:34.504Z,60.11
2019-01-23T22:03:05.090Z,60.26
2019-01-23T22:05:33.485Z,60.65
2019-01-23T22:08:02.087Z,60.74
2019-01-23T22:10:30.731Z,61.26
2019-01-23T22:12:59.424Z,61.01
2019-01-23T22:15:30.162Z,61.31
2019-01-23T22:17:58.554Z,62.55
2019-01-23T22:20:27.356Z,61.86
2019-01-23T22:22:55.813Z,61.61
2019-01-23T22:25:25.654Z,62.40
2019-01-23T22:27:54.495Z,62.85
2019-01-23T22:30:31.618Z,63.04
2019-01-23T22:33:00.197Z,62.72
2019-01-23T22:35:28.899Z,62.94
2019-01-23T22:37:57.548Z,63.47
2019-01-23T22:40:26.399Z,62.91
2019-01-23T22:42:54.802Z,63.21
2019-01-23T22:45:23.604Z,64.39
2019-01-23T22:47:52.000Z,64.79
2019-01-23T22:50:23.443Z,64.29
2019-01-23T22:52:52.272Z,63.95
2019-01-23T22:55:21.127Z,62.81
2019-01-23T22:57:49.694Z,62.10
2019-01-23T23:00:43.076Z,63.35
2019-01-23T23:03:14.043Z,62.89
2019-01-23T23:05:42.432Z,62.91
2019-01-23T23:08:11.277Z,62.06
2019-01-23T23:10:40.175Z,62.39
2019-01-23T23:13:08.745Z,62.84
2019-01-23T23:15:37.355Z,62.49
2019-01-23T23:18:06.427Z,61.48
2019-01-23T23:20:34.922Z,61.19
2019-01-23T23:23:03.386Z,60.85
2019-01-23T23:25:32.386Z,61.03
2019-01-23T23:28:01.686Z,61.41
2019-01-23T23:30:30.624Z,62.46
2019-01-23T23:32:59.328Z,61.72
2019-01-23T23:35:27.878Z,62.01
2019-01-23T23:37:56.272Z,61.95
2019-01-23T23:40:25.015Z,62.34
2019-01-23T23:42:53.493Z,62.17
2019-01-23T23:45:22.398Z,62.65
2019-01-23T23:47:51.075Z,62.41
2019-01-23T23:50:19.649Z,62.43
2019-01-23T23:52:48.320Z,62.71
2019-01-23T23:55:17.476Z,63.02
2019-01-23T23:57:46.324Z,63.16
